THA933 KLAS-LFPG
Flight info
| Callsign | THA933 |
|---|---|
| Flight time | N/A |
| Altitude | 35000 |
| Route | GIDGT3 TUKRR DCT DVC DCT KD54U DCT KD72A DCT FSD J114 GEP DCT KP09K DCT PEMLU/N0501F370 DCT 5430N07000W DCT AVUTI/M085F370 DCT 5830N05000W 59N040W 5830N03000W 57N020W DCT PIKIL/N0485F370 DCT SOVED DCT CON DCT INKUR DCT BAL DCT LIPGO DCT NUCHU L18 MID/N0454F290 Y803 SFD UM605 BIBAX |
| Aircraft | A388/J-SADE2E3FGHIJ3J4J5M1RWXY/C |
Departure
| Time | 2026-05-04 09:17 |
|---|---|
| Airport | Harry Reid International Airport (KLAS) |
Arrival
| Time | N/A |
|---|---|
| Airport | Charles de Gaulle International Airport (LFPG) |
| Time | Latitude | Longitude | Altitude | Speed | Heading |
|---|---|---|---|---|---|
| 2026-05-04 08:31 | 36.08519 | -115.13616 | 2092 ft | 0 kts | 360° |
| 2026-05-04 09:05 | 36.08518 | -115.13616 | 2092 ft | 0 kts | 360° |
| 2026-05-04 09:05 | 36.08497 | -115.13618 | 2092 ft | 4 kts | 26° |
| 2026-05-04 09:05 | 36.08478 | -115.13639 | 2092 ft | 4 kts | 59° |
| 2026-05-04 09:06 | 36.08464 | -115.13666 | 2092 ft | 4 kts | 37° |
| 2026-05-04 09:07 | 36.08446 | -115.13739 | 2092 ft | 0 kts | 89° |
| 2026-05-04 09:10 | 36.08447 | -115.13704 | 2092 ft | 7 kts | 86° |
| 2026-05-04 09:10 | 36.08448 | -115.13637 | 2092 ft | 9 kts | 91° |
| 2026-05-04 09:11 | 36.08446 | -115.13553 | 2092 ft | 11 kts | 91° |
| 2026-05-04 09:11 | 36.08430 | -115.13465 | 2092 ft | 10 kts | 120° |
| 2026-05-04 09:11 | 36.08376 | -115.13401 | 2092 ft | 11 kts | 150° |
| 2026-05-04 09:11 | 36.08295 | -115.13373 | 2091 ft | 13 kts | 175° |
| 2026-05-04 09:12 | 36.08198 | -115.13372 | 2090 ft | 14 kts | 180° |
| 2026-05-04 09:12 | 36.08093 | -115.13373 | 2089 ft | 16 kts | 180° |
| 2026-05-04 09:14 | 36.07753 | -115.12785 | 2061 ft | 24 kts | 90° |
| 2026-05-04 09:14 | 36.07752 | -115.12571 | 2054 ft | 24 kts | 90° |
| 2026-05-04 09:14 | 36.07752 | -115.12538 | 2053 ft | 3 kts | 90° |
| 2026-05-04 09:14 | 36.07752 | -115.12493 | 2053 ft | 7 kts | 90° |
| 2026-05-04 09:15 | 36.07753 | -115.12416 | 2052 ft | 11 kts | 90° |
| 2026-05-04 09:15 | 36.07753 | -115.12308 | 2049 ft | 14 kts | 96° |
| 2026-05-04 09:15 | 36.07693 | -115.12240 | 2050 ft | 12 kts | 167° |
| 2026-05-04 09:15 | 36.07630 | -115.12254 | 2051 ft | 8 kts | 215° |
| 2026-05-04 09:17 | 36.07676 | -115.17090 | 3088 ft | 166 kts | 271° |
| 2026-05-04 09:18 | 36.07736 | -115.18539 | 3562 ft | 175 kts | 272° |
| 2026-05-04 09:18 | 36.07784 | -115.20094 | 3926 ft | 189 kts | 268° |
| 2026-05-04 09:18 | 36.07737 | -115.21777 | 4147 ft | 204 kts | 266° |
| 2026-05-04 09:18 | 36.07682 | -115.23594 | 4272 ft | 218 kts | 267° |
| 2026-05-04 09:19 | 36.07653 | -115.25522 | 4411 ft | 228 kts | 270° |
| 2026-05-04 09:19 | 36.08066 | -115.27430 | 4617 ft | 238 kts | 302° |
| 2026-05-04 09:19 | 36.09292 | -115.28798 | 5413 ft | 238 kts | 336° |
| 2026-05-04 09:19 | 36.10879 | -115.29353 | 6250 ft | 242 kts | 348° |
| 2026-05-04 09:20 | 36.12613 | -115.29747 | 6669 ft | 262 kts | 351° |
| 2026-05-04 09:20 | 36.14438 | -115.29664 | 7406 ft | 266 kts | 18° |
| 2026-05-04 09:20 | 36.16048 | -115.28552 | 8159 ft | 269 kts | 45° |
| 2026-05-04 09:20 | 36.17141 | -115.26679 | 8848 ft | 273 kts | 62° |
| 2026-05-04 09:21 | 36.17941 | -115.24472 | 9097 ft | 290 kts | 72° |
| 2026-05-04 09:21 | 36.18610 | -115.22076 | 9535 ft | 297 kts | 71° |
| 2026-05-04 09:21 | 36.19273 | -115.19645 | 10105 ft | 299 kts | 76° |
| 2026-05-04 09:21 | 36.19634 | -115.17063 | 10347 ft | 313 kts | 88° |
| 2026-05-04 09:22 | 36.19636 | -115.14302 | 10508 ft | 328 kts | 92° |
| 2026-05-04 09:22 | 36.19610 | -115.11406 | 10661 ft | 344 kts | 91° |
| 2026-05-04 09:22 | 36.19608 | -115.08400 | 11033 ft | 352 kts | 91° |
| 2026-05-04 09:22 | 36.19613 | -115.05361 | 11593 ft | 354 kts | 91° |
| 2026-05-04 09:23 | 36.19618 | -115.02300 | 12141 ft | 357 kts | 91° |
| 2026-05-04 09:23 | 36.19620 | -114.99216 | 12662 ft | 360 kts | 92° |
| 2026-05-04 09:23 | 36.19619 | -114.96101 | 13138 ft | 364 kts | 92° |
| 2026-05-04 09:23 | 36.19616 | -114.92949 | 13616 ft | 368 kts | 92° |
| 2026-05-04 09:25 | 36.19580 | -114.70051 | 16735 ft | 393 kts | 92° |
| 2026-05-04 09:25 | 36.19571 | -114.66656 | 17132 ft | 397 kts | 92° |
| 2026-05-04 09:26 | 36.19564 | -114.63228 | 17544 ft | 400 kts | 92° |
| 2026-05-04 09:26 | 36.19557 | -114.59770 | 17935 ft | 404 kts | 92° |
| 2026-05-04 09:26 | 36.19549 | -114.56273 | 18303 ft | 407 kts | 92° |
| 2026-05-04 09:26 | 36.19539 | -114.52761 | 18722 ft | 410 kts | 92° |
| 2026-05-04 09:27 | 36.19527 | -114.49220 | 19063 ft | 414 kts | 92° |
| 2026-05-04 09:27 | 36.19516 | -114.45648 | 19430 ft | 417 kts | 92° |
| 2026-05-04 09:27 | 36.19503 | -114.42047 | 19780 ft | 419 kts | 92° |
| 2026-05-04 09:27 | 36.19488 | -114.38427 | 20143 ft | 422 kts | 92° |
| 2026-05-04 09:28 | 36.19472 | -114.34781 | 20481 ft | 425 kts | 92° |
| 2026-05-04 09:28 | 36.19455 | -114.31109 | 20825 ft | 428 kts | 92° |
| 2026-05-04 09:28 | 36.19437 | -114.27413 | 21150 ft | 431 kts | 92° |
| 2026-05-04 09:28 | 36.19489 | -114.23690 | 21465 ft | 435 kts | 86° |
| 2026-05-04 09:29 | 36.19897 | -114.19968 | 21801 ft | 438 kts | 82° |
| 2026-05-04 09:29 | 36.20362 | -114.16229 | 22108 ft | 441 kts | 82° |
| 2026-05-04 09:29 | 36.20815 | -114.12469 | 22461 ft | 442 kts | 83° |
| 2026-05-04 09:29 | 36.21265 | -114.08690 | 22734 ft | 446 kts | 83° |
| 2026-05-04 09:30 | 36.21717 | -114.04879 | 23070 ft | 448 kts | 83° |
| 2026-05-04 09:30 | 36.22170 | -114.01058 | 23370 ft | 451 kts | 83° |
| 2026-05-04 09:30 | 36.22626 | -113.97203 | 23662 ft | 453 kts | 83° |
| 2026-05-04 09:30 | 36.23083 | -113.93338 | 23981 ft | 455 kts | 83° |
| 2026-05-04 09:31 | 36.23541 | -113.89444 | 24269 ft | 458 kts | 83° |
| 2026-05-04 09:31 | 36.23998 | -113.85534 | 24586 ft | 460 kts | 83° |
| 2026-05-04 09:31 | 36.24458 | -113.81606 | 24887 ft | 462 kts | 83° |
| 2026-05-04 09:31 | 36.24921 | -113.77646 | 25166 ft | 465 kts | 83° |
| 2026-05-04 09:32 | 36.25383 | -113.73678 | 25507 ft | 467 kts | 83° |
| 2026-05-04 09:32 | 36.25846 | -113.69687 | 25820 ft | 470 kts | 83° |
| 2026-05-04 09:34 | 36.29122 | -113.41114 | 28062 ft | 489 kts | 83° |
| 2026-05-04 09:34 | 36.29594 | -113.36938 | 28385 ft | 491 kts | 83° |
| 2026-05-04 09:34 | 36.30066 | -113.32740 | 28716 ft | 494 kts | 83° |
| 2026-05-04 09:34 | 36.30541 | -113.28498 | 28994 ft | 497 kts | 83° |
| 2026-05-04 09:35 | 36.31105 | -113.24260 | 29319 ft | 500 kts | 78° |
| 2026-05-04 09:35 | 36.32086 | -113.20116 | 29617 ft | 503 kts | 69° |
| 2026-05-04 09:35 | 36.33459 | -113.16109 | 29940 ft | 506 kts | 65° |
| 2026-05-04 09:35 | 36.34889 | -113.12110 | 30228 ft | 509 kts | 66° |
| 2026-05-04 09:37 | 36.44977 | -112.83332 | 32233 ft | 529 kts | 65° |
| 2026-05-04 09:37 | 36.46445 | -112.79127 | 32495 ft | 532 kts | 65° |
| 2026-05-04 09:38 | 36.47925 | -112.74888 | 32704 ft | 536 kts | 66° |
| 2026-05-04 09:38 | 36.49404 | -112.70627 | 32966 ft | 538 kts | 65° |
| 2026-05-04 09:38 | 36.50893 | -112.66351 | 33211 ft | 541 kts | 65° |
| 2026-05-04 09:38 | 36.52392 | -112.62038 | 33447 ft | 544 kts | 65° |
| 2026-05-04 09:39 | 36.53889 | -112.57712 | 33688 ft | 547 kts | 65° |
| 2026-05-04 09:39 | 36.55395 | -112.53366 | 33920 ft | 549 kts | 65° |
| 2026-05-04 09:39 | 36.56913 | -112.48986 | 34193 ft | 552 kts | 65° |
| 2026-05-04 09:39 | 36.58424 | -112.44600 | 34506 ft | 553 kts | 65° |
| 2026-05-04 09:40 | 36.59917 | -112.40254 | 34879 ft | 552 kts | 65° |
| 2026-05-04 09:40 | 36.61437 | -112.35845 | 35032 ft | 558 kts | 65° |
| 2026-05-04 09:40 | 36.64470 | -112.26992 | 35020 ft | 559 kts | 65° |
| 2026-05-04 09:42 | 36.76880 | -111.90583 | 35005 ft | 571 kts | 65° |
| 2026-05-04 09:43 | 36.79974 | -111.81447 | 35001 ft | 571 kts | 65° |
| 2026-05-04 09:43 | 36.83053 | -111.72318 | 34999 ft | 571 kts | 65° |
| 2026-05-04 09:44 | 36.86130 | -111.63197 | 34981 ft | 571 kts | 64° |
| 2026-05-04 09:46 | 36.99289 | -111.27250 | 34972 ft | 568 kts | 64° |
| 2026-05-04 09:46 | 37.02543 | -111.18252 | 34970 ft | 568 kts | 64° |
| 2026-05-04 09:47 | 37.05787 | -111.09253 | 34980 ft | 568 kts | 64° |
| 2026-05-04 09:49 | 37.18154 | -110.74717 | 34971 ft | 567 kts | 64° |
| 2026-05-04 09:51 | 37.29852 | -110.41677 | 34961 ft | 564 kts | 64° |
| 2026-05-04 09:51 | 37.32506 | -110.34136 | 34972 ft | 564 kts | 64° |
| 2026-05-04 09:52 | 37.35667 | -110.25122 | 34971 ft | 564 kts | 64° |
| 2026-05-04 09:52 | 37.38823 | -110.16106 | 34982 ft | 563 kts | 64° |
| 2026-05-04 09:53 | 37.41968 | -110.07094 | 34981 ft | 562 kts | 64° |
| 2026-05-04 09:53 | 37.45096 | -109.98088 | 35002 ft | 562 kts | 64° |
| 2026-05-04 09:54 | 37.48197 | -109.89070 | 35014 ft | 561 kts | 65° |
| 2026-05-04 09:54 | 37.51319 | -109.80060 | 35023 ft | 561 kts | 64° |
| 2026-05-04 09:55 | 37.54410 | -109.71116 | 35029 ft | 560 kts | 65° |
| 2026-05-04 09:55 | 37.57510 | -109.62093 | 35035 ft | 561 kts | 65° |
| 2026-05-04 09:56 | 37.60602 | -109.53063 | 35037 ft | 561 kts | 65° |
| 2026-05-04 09:56 | 37.63688 | -109.44019 | 35036 ft | 561 kts | 65° |
| 2026-05-04 09:57 | 37.66765 | -109.34977 | 35044 ft | 561 kts | 65° |
| 2026-05-04 09:57 | 37.69835 | -109.25925 | 35062 ft | 561 kts | 65° |
| 2026-05-04 09:58 | 37.72897 | -109.16869 | 35071 ft | 561 kts | 65° |
| 2026-05-04 09:58 | 37.75955 | -109.07799 | 35080 ft | 561 kts | 65° |
| 2026-05-04 10:00 | 37.89617 | -108.72533 | 35100 ft | 556 kts | 59° |
| 2026-05-04 10:04 | 38.14878 | -108.12248 | 35155 ft | 552 kts | 59° |
| 2026-05-04 10:04 | 38.18460 | -108.03606 | 35152 ft | 552 kts | 59° |
| 2026-05-04 10:05 | 38.22027 | -107.94967 | 35140 ft | 552 kts | 60° |
| 2026-05-04 10:05 | 38.25591 | -107.86317 | 35130 ft | 552 kts | 60° |
| 2026-05-04 10:06 | 38.29151 | -107.77659 | 35127 ft | 552 kts | 60° |
| 2026-05-04 10:06 | 38.32700 | -107.68999 | 35118 ft | 551 kts | 60° |
| 2026-05-04 10:08 | 38.45038 | -107.38708 | 35128 ft | 549 kts | 60° |
| 2026-05-04 10:08 | 38.48537 | -107.30063 | 35130 ft | 548 kts | 60° |
| 2026-05-04 10:09 | 38.52024 | -107.21425 | 35124 ft | 547 kts | 60° |
| 2026-05-04 10:09 | 38.55503 | -107.12781 | 35118 ft | 547 kts | 60° |
| 2026-05-04 10:10 | 38.58974 | -107.04134 | 35127 ft | 546 kts | 60° |
| 2026-05-04 10:10 | 38.62432 | -106.95493 | 35127 ft | 546 kts | 60° |
| 2026-05-04 10:11 | 38.65886 | -106.86837 | 35131 ft | 546 kts | 60° |
| 2026-05-04 10:11 | 38.69332 | -106.78178 | 35149 ft | 546 kts | 60° |
| 2026-05-04 10:12 | 38.72748 | -106.69570 | 35157 ft | 546 kts | 60° |
| 2026-05-04 10:12 | 38.76179 | -106.60900 | 35174 ft | 545 kts | 60° |
| 2026-05-04 10:13 | 38.79600 | -106.52226 | 35174 ft | 545 kts | 60° |
| 2026-05-04 10:13 | 38.83013 | -106.43547 | 35117 ft | 545 kts | 60° |
| 2026-05-04 10:14 | 38.86422 | -106.34869 | 35147 ft | 545 kts | 60° |
| 2026-05-04 10:16 | 38.99994 | -106.00201 | 35114 ft | 541 kts | 57° |
| 2026-05-04 10:16 | 39.04221 | -105.92284 | 35126 ft | 536 kts | 51° |
| 2026-05-04 10:17 | 39.08516 | -105.84445 | 35163 ft | 535 kts | 52° |
| 2026-05-04 10:19 | 39.25578 | -105.53106 | 35183 ft | 533 kts | 52° |
| 2026-05-04 10:19 | 39.29785 | -105.45328 | 35161 ft | 532 kts | 52° |
| 2026-05-04 10:20 | 39.34010 | -105.37491 | 35134 ft | 532 kts | 52° |
| 2026-05-04 10:20 | 39.38234 | -105.29634 | 35097 ft | 532 kts | 52° |
| 2026-05-04 10:21 | 39.42445 | -105.21794 | 35073 ft | 531 kts | 53° |
| 2026-05-04 10:21 | 39.46653 | -105.13930 | 35008 ft | 531 kts | 52° |
| 2026-05-04 10:22 | 39.52949 | -105.02137 | 34965 ft | 531 kts | 53° |
| 2026-05-04 10:23 | 39.57137 | -104.94263 | 34955 ft | 530 kts | 53° |
| 2026-05-04 10:25 | 39.73799 | -104.62749 | 34924 ft | 528 kts | 53° |
| 2026-05-04 10:25 | 39.77941 | -104.54870 | 34934 ft | 528 kts | 53° |
| 2026-05-04 10:26 | 39.82073 | -104.46989 | 34934 ft | 527 kts | 53° |
| 2026-05-04 10:26 | 39.86193 | -104.39105 | 34934 ft | 526 kts | 53° |
| 2026-05-04 10:27 | 39.90303 | -104.31223 | 34926 ft | 526 kts | 53° |
| 2026-05-04 10:27 | 39.94373 | -104.23399 | 34924 ft | 525 kts | 53° |
| 2026-05-04 10:28 | 39.98463 | -104.15517 | 34915 ft | 525 kts | 53° |
| 2026-05-04 10:28 | 40.02549 | -104.07624 | 34906 ft | 524 kts | 54° |
| 2026-05-04 10:29 | 40.06626 | -103.99728 | 34897 ft | 525 kts | 54° |
| 2026-05-04 10:29 | 40.10701 | -103.91817 | 34887 ft | 524 kts | 54° |
| 2026-05-04 10:30 | 40.14767 | -103.83904 | 34876 ft | 524 kts | 54° |
| 2026-05-04 10:30 | 40.18825 | -103.75986 | 34868 ft | 524 kts | 54° |
| 2026-05-04 10:31 | 40.22882 | -103.68050 | 34870 ft | 524 kts | 54° |
| 2026-05-04 10:32 | 40.37020 | -103.40231 | 34860 ft | 524 kts | 54° |
| 2026-05-04 10:33 | 40.41044 | -103.32270 | 34858 ft | 523 kts | 54° |
| 2026-05-04 10:33 | 40.45058 | -103.24309 | 34851 ft | 523 kts | 54° |
| 2026-05-04 10:34 | 40.49063 | -103.16339 | 34841 ft | 522 kts | 54° |
| 2026-05-04 10:34 | 40.53032 | -103.08430 | 34841 ft | 522 kts | 54° |
| 2026-05-04 10:35 | 40.57021 | -103.00453 | 34841 ft | 522 kts | 54° |
| 2026-05-04 10:35 | 40.61007 | -102.92463 | 34842 ft | 522 kts | 54° |
| 2026-05-04 10:36 | 40.64985 | -102.84471 | 34841 ft | 522 kts | 55° |
| 2026-05-04 10:36 | 40.68955 | -102.76474 | 34831 ft | 522 kts | 55° |
| 2026-05-04 10:37 | 40.72922 | -102.68464 | 34832 ft | 521 kts | 55° |
| 2026-05-04 10:37 | 40.76875 | -102.60452 | 34833 ft | 521 kts | 55° |
| 2026-05-04 10:39 | 40.90007 | -102.33708 | 34814 ft | 521 kts | 55° |
| 2026-05-04 10:40 | 40.93941 | -102.25661 | 34814 ft | 520 kts | 55° |
| 2026-05-04 10:40 | 40.97858 | -102.17622 | 34813 ft | 520 kts | 55° |
| 2026-05-04 10:41 | 41.01768 | -102.09564 | 34808 ft | 520 kts | 56° |
| 2026-05-04 10:41 | 41.05676 | -102.01499 | 34813 ft | 520 kts | 56° |
| 2026-05-04 10:42 | 41.09578 | -101.93426 | 34830 ft | 520 kts | 56° |
| 2026-05-04 10:42 | 41.13466 | -101.85355 | 34833 ft | 519 kts | 56° |
| 2026-05-04 10:43 | 41.17351 | -101.77275 | 34833 ft | 519 kts | 56° |
| 2026-05-04 10:45 | 41.32823 | -101.44870 | 34807 ft | 519 kts | 56° |
| 2026-05-04 10:45 | 41.36674 | -101.36748 | 34812 ft | 519 kts | 56° |
| 2026-05-04 10:46 | 41.40522 | -101.28610 | 34816 ft | 520 kts | 56° |
| 2026-05-04 10:46 | 41.44376 | -101.20444 | 34811 ft | 520 kts | 56° |
| 2026-05-04 10:47 | 41.48220 | -101.12276 | 34813 ft | 519 kts | 56° |
| 2026-05-04 10:47 | 41.52031 | -101.04155 | 34801 ft | 520 kts | 56° |
| 2026-05-04 10:49 | 41.67307 | -100.71383 | 34802 ft | 520 kts | 56° |
| 2026-05-04 10:50 | 41.71113 | -100.63161 | 34805 ft | 519 kts | 56° |
| 2026-05-04 10:52 | 41.86271 | -100.30201 | 34797 ft | 519 kts | 57° |
| 2026-05-04 10:52 | 41.90042 | -100.21945 | 34787 ft | 519 kts | 57° |
| 2026-05-04 10:54 | 42.05625 | -99.89335 | 34776 ft | 518 kts | 51° |
| 2026-05-04 10:56 | 42.22566 | -99.57972 | 34763 ft | 517 kts | 52° |
| 2026-05-04 10:57 | 42.26766 | -99.50084 | 34759 ft | 517 kts | 52° |
| 2026-05-04 10:57 | 42.30954 | -99.42198 | 34756 ft | 517 kts | 52° |
| 2026-05-04 10:58 | 42.35132 | -99.34311 | 34748 ft | 516 kts | 52° |
| 2026-05-04 10:58 | 42.39304 | -99.26410 | 34745 ft | 516 kts | 52° |
| 2026-05-04 10:59 | 42.43468 | -99.18505 | 34749 ft | 516 kts | 52° |
| 2026-05-04 10:59 | 42.47627 | -99.10589 | 34735 ft | 515 kts | 53° |
| 2026-05-04 11:00 | 42.51774 | -99.02675 | 34716 ft | 515 kts | 53° |
| 2026-05-04 11:02 | 42.68268 | -98.70989 | 34718 ft | 514 kts | 53° |
| 2026-05-04 11:05 | 42.98994 | -98.11046 | 34677 ft | 514 kts | 53° |
| 2026-05-04 11:06 | 43.03067 | -98.03010 | 34672 ft | 515 kts | 53° |
| 2026-05-04 11:06 | 43.07137 | -97.94959 | 34671 ft | 514 kts | 53° |
| 2026-05-04 11:10 | 43.35432 | -97.38359 | 34664 ft | 515 kts | 53° |
| 2026-05-04 11:12 | 43.51489 | -97.05750 | 34645 ft | 515 kts | 53° |
| 2026-05-04 11:12 | 43.55493 | -96.97566 | 34647 ft | 515 kts | 53° |
| 2026-05-04 11:13 | 43.59487 | -96.89371 | 34635 ft | 515 kts | 54° |
| 2026-05-04 11:13 | 43.63484 | -96.81165 | 34638 ft | 515 kts | 53° |
| 2026-05-04 11:16 | 43.82841 | -96.39440 | 34637 ft | 515 kts | 55° |
| 2026-05-04 11:16 | 43.86686 | -96.31056 | 34628 ft | 516 kts | 55° |
| 2026-05-04 11:17 | 43.90525 | -96.22666 | 34626 ft | 516 kts | 55° |
| 2026-05-04 11:19 | 44.05807 | -95.89019 | 34628 ft | 516 kts | 56° |
| 2026-05-04 11:19 | 44.09617 | -95.80561 | 34626 ft | 516 kts | 56° |
| 2026-05-04 11:20 | 44.13420 | -95.72098 | 34616 ft | 517 kts | 56° |
| 2026-05-04 11:20 | 44.17228 | -95.63598 | 34601 ft | 517 kts | 56° |
| 2026-05-04 11:22 | 44.32419 | -95.29453 | 34594 ft | 519 kts | 56° |
| 2026-05-04 11:23 | 44.36206 | -95.20873 | 34595 ft | 519 kts | 56° |
| 2026-05-04 11:25 | 44.49424 | -94.90736 | 34581 ft | 520 kts | 56° |
| 2026-05-04 11:25 | 44.53192 | -94.82083 | 34577 ft | 521 kts | 56° |
| 2026-05-04 11:27 | 44.70077 | -94.42995 | 34558 ft | 520 kts | 56° |
| 2026-05-04 11:28 | 44.73211 | -94.35680 | 34553 ft | 521 kts | 56° |
| 2026-05-04 11:28 | 44.76916 | -94.27010 | 34553 ft | 521 kts | 57° |
| 2026-05-04 11:29 | 44.80647 | -94.18250 | 34542 ft | 522 kts | 57° |
| 2026-05-04 11:29 | 44.84368 | -94.09485 | 34542 ft | 522 kts | 57° |
| 2026-05-04 11:33 | 45.10324 | -93.47598 | 34496 ft | 524 kts | 57° |
| 2026-05-04 11:33 | 45.14020 | -93.38689 | 34496 ft | 526 kts | 57° |
| 2026-05-04 11:34 | 45.17728 | -93.29848 | 34496 ft | 525 kts | 56° |
| 2026-05-04 11:34 | 45.21503 | -93.20990 | 34495 ft | 525 kts | 56° |
| 2026-05-04 11:35 | 45.25274 | -93.12111 | 34495 ft | 526 kts | 56° |
| 2026-05-04 11:35 | 45.29031 | -93.03215 | 34497 ft | 526 kts | 56° |
| 2026-05-04 11:36 | 45.32778 | -92.94303 | 34496 ft | 525 kts | 56° |
| 2026-05-04 11:36 | 45.36522 | -92.85370 | 34505 ft | 526 kts | 56° |
| 2026-05-04 11:37 | 45.40260 | -92.76423 | 34505 ft | 526 kts | 57° |
| 2026-05-04 11:37 | 45.43993 | -92.67461 | 34506 ft | 526 kts | 57° |
| 2026-05-04 11:38 | 45.47719 | -92.58485 | 34495 ft | 527 kts | 57° |
| 2026-05-04 11:38 | 45.51444 | -92.49481 | 34487 ft | 527 kts | 57° |
| 2026-05-04 11:39 | 45.55164 | -92.40462 | 34478 ft | 528 kts | 57° |
| 2026-05-04 11:41 | 45.68152 | -92.08753 | 34468 ft | 529 kts | 57° |
| 2026-05-04 11:41 | 45.71850 | -91.99659 | 34470 ft | 530 kts | 57° |
| 2026-05-04 11:42 | 45.75551 | -91.90521 | 34447 ft | 530 kts | 57° |
| 2026-05-04 11:42 | 45.79237 | -91.81384 | 34448 ft | 530 kts | 57° |
| 2026-05-04 11:43 | 45.82916 | -91.72247 | 34441 ft | 529 kts | 57° |
| 2026-05-04 11:43 | 45.86584 | -91.63109 | 34436 ft | 528 kts | 57° |
| 2026-05-04 11:44 | 45.90245 | -91.53961 | 34429 ft | 529 kts | 57° |
| 2026-05-04 11:44 | 45.93875 | -91.44853 | 34421 ft | 528 kts | 58° |
| 2026-05-04 11:45 | 45.97513 | -91.35695 | 34422 ft | 527 kts | 58° |
| 2026-05-04 11:45 | 46.01139 | -91.26541 | 34422 ft | 527 kts | 58° |
| 2026-05-04 11:46 | 46.04766 | -91.17344 | 34420 ft | 529 kts | 58° |
| 2026-05-04 11:46 | 46.08388 | -91.08127 | 34419 ft | 528 kts | 58° |
| 2026-05-04 11:47 | 46.12002 | -90.98905 | 34411 ft | 528 kts | 58° |
| 2026-05-04 11:47 | 46.15601 | -90.89690 | 34402 ft | 527 kts | 58° |
| 2026-05-04 11:48 | 46.19195 | -90.80460 | 34392 ft | 527 kts | 58° |
| 2026-05-04 11:48 | 46.22778 | -90.71227 | 34383 ft | 526 kts | 58° |
| 2026-05-04 11:49 | 46.26347 | -90.61996 | 34393 ft | 526 kts | 58° |
| 2026-05-04 11:49 | 46.29905 | -90.52762 | 34391 ft | 525 kts | 58° |
| 2026-05-04 11:50 | 46.33451 | -90.43532 | 34392 ft | 525 kts | 58° |
| 2026-05-04 11:50 | 46.36982 | -90.34313 | 34403 ft | 525 kts | 58° |
| 2026-05-04 11:51 | 46.40509 | -90.25062 | 34401 ft | 525 kts | 59° |
| 2026-05-04 11:51 | 46.44032 | -90.15794 | 34392 ft | 525 kts | 59° |
| 2026-05-04 11:52 | 46.47544 | -90.06531 | 34393 ft | 524 kts | 59° |
| 2026-05-04 11:52 | 46.51256 | -89.97460 | 34395 ft | 521 kts | 51° |
| 2026-05-04 11:53 | 46.55578 | -89.89018 | 34392 ft | 521 kts | 51° |
| 2026-05-04 11:53 | 46.59892 | -89.80556 | 34392 ft | 521 kts | 51° |
| 2026-05-04 11:55 | 46.77079 | -89.46618 | 34392 ft | 522 kts | 51° |
| 2026-05-04 11:56 | 46.81364 | -89.38076 | 34392 ft | 522 kts | 51° |
| 2026-05-04 11:56 | 46.85649 | -89.29504 | 34392 ft | 522 kts | 51° |
| 2026-05-04 11:57 | 46.89926 | -89.20921 | 34392 ft | 523 kts | 51° |
| 2026-05-04 11:57 | 46.94200 | -89.12321 | 34393 ft | 522 kts | 51° |
| 2026-05-04 11:58 | 46.98464 | -89.03716 | 34383 ft | 523 kts | 51° |
| 2026-05-04 11:58 | 47.02726 | -88.95085 | 34375 ft | 523 kts | 51° |
| 2026-05-04 11:59 | 47.06984 | -88.86433 | 34374 ft | 523 kts | 51° |
| 2026-05-04 11:59 | 47.11234 | -88.77769 | 34366 ft | 523 kts | 51° |
| 2026-05-04 12:00 | 47.15473 | -88.69101 | 34363 ft | 522 kts | 51° |
| 2026-05-04 12:00 | 47.19707 | -88.60422 | 34363 ft | 523 kts | 51° |
| 2026-05-04 12:01 | 47.23937 | -88.51723 | 34365 ft | 523 kts | 51° |
| 2026-05-04 12:02 | 47.38667 | -88.21195 | 34356 ft | 523 kts | 51° |
| 2026-05-04 12:03 | 47.42871 | -88.12425 | 34355 ft | 523 kts | 51° |
| 2026-05-04 12:03 | 47.47064 | -88.03649 | 34355 ft | 523 kts | 51° |
| 2026-05-04 12:04 | 47.51258 | -87.94841 | 34353 ft | 523 kts | 51° |
| 2026-05-04 12:04 | 47.55469 | -87.85973 | 34328 ft | 533 kts | 52° |
| 2026-05-04 12:05 | 47.59742 | -87.76944 | 34324 ft | 535 kts | 52° |
| 2026-05-04 12:05 | 47.64004 | -87.67898 | 34322 ft | 535 kts | 52° |
| 2026-05-04 12:06 | 47.68254 | -87.58853 | 34335 ft | 534 kts | 52° |
| 2026-05-04 12:06 | 47.72495 | -87.49795 | 34336 ft | 534 kts | 52° |
| 2026-05-04 12:07 | 47.76729 | -87.40726 | 34337 ft | 534 kts | 52° |
| 2026-05-04 12:07 | 47.80953 | -87.31650 | 34345 ft | 533 kts | 52° |
| 2026-05-04 12:08 | 47.85162 | -87.22577 | 34344 ft | 532 kts | 52° |
| 2026-05-04 12:08 | 47.89356 | -87.13506 | 34356 ft | 531 kts | 52° |
| 2026-05-04 12:09 | 47.93534 | -87.04436 | 34365 ft | 530 kts | 53° |
| 2026-05-04 12:09 | 47.97693 | -86.95378 | 34365 ft | 529 kts | 53° |
| 2026-05-04 12:10 | 48.01846 | -86.86307 | 34355 ft | 528 kts | 53° |
| 2026-05-04 12:10 | 48.05986 | -86.77234 | 34346 ft | 528 kts | 53° |
| 2026-05-04 12:11 | 48.10112 | -86.68155 | 34344 ft | 527 kts | 53° |
| 2026-05-04 12:11 | 48.14193 | -86.59144 | 34355 ft | 526 kts | 53° |
| 2026-05-04 12:12 | 48.18291 | -86.50067 | 34380 ft | 526 kts | 53° |
| 2026-05-04 12:12 | 48.22379 | -86.40988 | 34383 ft | 525 kts | 53° |
| 2026-05-04 12:14 | 48.38621 | -86.04598 | 34413 ft | 524 kts | 53° |
| 2026-05-04 12:15 | 48.42665 | -85.95463 | 34439 ft | 524 kts | 53° |
| 2026-05-04 12:15 | 48.46700 | -85.86325 | 34454 ft | 525 kts | 54° |
| 2026-05-04 12:16 | 48.50049 | -85.78705 | 34487 ft | 524 kts | 54° |
| 2026-05-04 12:16 | 48.54064 | -85.69542 | 34486 ft | 524 kts | 54° |
| 2026-05-04 12:17 | 48.58076 | -85.60353 | 34487 ft | 524 kts | 54° |
| 2026-05-04 12:17 | 48.62081 | -85.51153 | 34485 ft | 524 kts | 54° |
| 2026-05-04 12:18 | 48.66078 | -85.41952 | 34487 ft | 524 kts | 54° |
| 2026-05-04 12:18 | 48.70064 | -85.32731 | 34440 ft | 523 kts | 54° |
| 2026-05-04 12:19 | 48.74036 | -85.23513 | 34391 ft | 523 kts | 54° |
| 2026-05-04 12:19 | 48.78002 | -85.14277 | 34400 ft | 523 kts | 54° |
| 2026-05-04 12:20 | 48.81957 | -85.05035 | 34392 ft | 522 kts | 54° |
| 2026-05-04 12:20 | 48.85905 | -84.95777 | 34404 ft | 521 kts | 54° |
| 2026-05-04 12:21 | 48.89843 | -84.86509 | 34402 ft | 522 kts | 54° |
| 2026-05-04 12:21 | 48.93774 | -84.77235 | 34401 ft | 522 kts | 54° |
| 2026-05-04 12:22 | 48.97693 | -84.67954 | 34435 ft | 521 kts | 54° |
| 2026-05-04 12:22 | 49.01603 | -84.58655 | 34478 ft | 521 kts | 55° |
| 2026-05-04 12:23 | 49.05504 | -84.49347 | 34477 ft | 521 kts | 55° |
| 2026-05-04 12:23 | 49.09396 | -84.40031 | 34476 ft | 521 kts | 55° |
| 2026-05-04 12:24 | 49.13283 | -84.30699 | 34477 ft | 520 kts | 55° |
| 2026-05-04 12:24 | 49.17131 | -84.21420 | 34477 ft | 521 kts | 55° |
| 2026-05-04 12:25 | 49.20999 | -84.12061 | 34477 ft | 521 kts | 55° |
| 2026-05-04 12:25 | 49.24857 | -84.02696 | 34478 ft | 520 kts | 55° |
| 2026-05-04 12:26 | 49.28705 | -83.93323 | 34477 ft | 519 kts | 55° |
| 2026-05-04 12:26 | 49.32531 | -83.83968 | 34483 ft | 518 kts | 56° |
| 2026-05-04 12:27 | 49.36350 | -83.74596 | 34486 ft | 518 kts | 56° |
| 2026-05-04 12:27 | 49.40160 | -83.65215 | 34486 ft | 518 kts | 56° |
| 2026-05-04 12:28 | 49.43965 | -83.55812 | 34484 ft | 519 kts | 56° |
| 2026-05-04 12:28 | 49.47762 | -83.46392 | 34479 ft | 518 kts | 56° |
| 2026-05-04 12:29 | 49.51552 | -83.36963 | 34487 ft | 518 kts | 56° |
| 2026-05-04 12:29 | 49.55330 | -83.27528 | 34486 ft | 518 kts | 56° |
| 2026-05-04 12:30 | 49.59100 | -83.18080 | 34486 ft | 518 kts | 56° |
| 2026-05-04 12:30 | 49.62857 | -83.08620 | 34496 ft | 517 kts | 56° |
| 2026-05-04 12:31 | 49.66614 | -82.99148 | 34496 ft | 518 kts | 56° |
| 2026-05-04 12:31 | 49.70369 | -82.89643 | 34496 ft | 519 kts | 56° |
| 2026-05-04 12:32 | 49.75978 | -82.75364 | 34496 ft | 517 kts | 56° |
| 2026-05-04 12:33 | 49.79700 | -82.65841 | 34496 ft | 518 kts | 57° |
| 2026-05-04 12:33 | 49.83418 | -82.56296 | 34496 ft | 517 kts | 57° |
| 2026-05-04 12:34 | 49.87125 | -82.46759 | 34495 ft | 516 kts | 57° |
| 2026-05-04 12:34 | 49.90823 | -82.37193 | 34497 ft | 517 kts | 57° |
| 2026-05-04 12:35 | 49.94486 | -82.27690 | 34506 ft | 516 kts | 57° |
| 2026-05-04 12:35 | 49.98164 | -82.18111 | 34505 ft | 516 kts | 57° |
| 2026-05-04 12:36 | 50.01832 | -82.08524 | 34506 ft | 516 kts | 57° |
| 2026-05-04 12:36 | 50.05496 | -81.98919 | 34504 ft | 516 kts | 57° |
| 2026-05-04 12:37 | 50.09147 | -81.89304 | 34504 ft | 516 kts | 58° |
| 2026-05-04 12:37 | 50.12794 | -81.79667 | 34505 ft | 516 kts | 58° |
| 2026-05-04 12:38 | 50.16430 | -81.70016 | 34505 ft | 516 kts | 58° |
| 2026-05-04 12:38 | 50.20063 | -81.60352 | 34504 ft | 516 kts | 58° |
| 2026-05-04 12:39 | 50.23683 | -81.50670 | 34505 ft | 517 kts | 58° |
| 2026-05-04 12:39 | 50.27307 | -81.40958 | 34505 ft | 517 kts | 58° |
| 2026-05-04 12:40 | 50.30918 | -81.31237 | 34505 ft | 517 kts | 58° |
| 2026-05-04 12:40 | 50.34523 | -81.21487 | 34504 ft | 517 kts | 58° |
| 2026-05-04 12:41 | 50.38123 | -81.11730 | 34505 ft | 517 kts | 58° |
| 2026-05-04 12:41 | 50.41711 | -81.01957 | 34505 ft | 518 kts | 59° |
| 2026-05-04 12:42 | 50.45292 | -80.92156 | 34505 ft | 518 kts | 59° |
| 2026-05-04 12:42 | 50.48873 | -80.82347 | 34503 ft | 518 kts | 58° |
| 2026-05-04 12:43 | 50.52419 | -80.72579 | 34505 ft | 518 kts | 59° |
| 2026-05-04 12:43 | 50.55979 | -80.62728 | 34514 ft | 518 kts | 59° |
| 2026-05-04 12:44 | 50.59533 | -80.52857 | 34524 ft | 519 kts | 59° |
| 2026-05-04 12:44 | 50.63091 | -80.42963 | 34522 ft | 521 kts | 59° |
| 2026-05-04 12:44 | 50.64872 | -80.37985 | 34899 ft | 521 kts | 59° |
| 2026-05-04 12:45 | 50.66653 | -80.33009 | 35341 ft | 521 kts | 59° |
| 2026-05-04 12:45 | 50.68435 | -80.28032 | 35708 ft | 521 kts | 59° |
| 2026-05-04 12:45 | 50.70213 | -80.23054 | 36082 ft | 521 kts | 59° |
| 2026-05-04 12:45 | 50.71986 | -80.18070 | 36385 ft | 522 kts | 60° |
| 2026-05-04 12:46 | 50.73767 | -80.13055 | 36527 ft | 527 kts | 60° |
| 2026-05-04 12:46 | 50.77295 | -80.03102 | 36524 ft | 510 kts | 60° |
| 2026-05-04 12:47 | 50.80943 | -79.93575 | 36528 ft | 509 kts | 53° |
| 2026-05-04 12:47 | 50.85132 | -79.84523 | 36525 ft | 510 kts | 53° |
| 2026-05-04 12:48 | 50.89288 | -79.75422 | 36528 ft | 510 kts | 53° |
| 2026-05-04 12:48 | 50.93390 | -79.66246 | 36525 ft | 510 kts | 54° |
| 2026-05-04 12:49 | 50.97475 | -79.57046 | 36527 ft | 510 kts | 54° |
| 2026-05-04 12:49 | 51.01547 | -79.47835 | 36522 ft | 510 kts | 54° |
| 2026-05-04 12:50 | 51.05611 | -79.38600 | 36524 ft | 510 kts | 54° |
| 2026-05-04 12:50 | 51.09666 | -79.29342 | 36539 ft | 509 kts | 54° |
| 2026-05-04 12:51 | 51.13708 | -79.20079 | 36534 ft | 510 kts | 55° |
| 2026-05-04 12:51 | 51.17745 | -79.10801 | 36531 ft | 509 kts | 54° |
| 2026-05-04 12:52 | 51.21774 | -79.01505 | 36532 ft | 510 kts | 55° |
| 2026-05-04 12:52 | 51.25799 | -78.92190 | 36543 ft | 510 kts | 55° |
| 2026-05-04 12:53 | 51.29812 | -78.82860 | 36541 ft | 510 kts | 55° |
| 2026-05-04 12:53 | 51.33816 | -78.73515 | 36539 ft | 510 kts | 55° |
| 2026-05-04 12:54 | 51.37819 | -78.64147 | 36531 ft | 510 kts | 55° |
| 2026-05-04 12:54 | 51.41810 | -78.54775 | 36532 ft | 509 kts | 55° |
| 2026-05-04 12:55 | 51.45796 | -78.45377 | 36531 ft | 510 kts | 56° |
| 2026-05-04 12:55 | 51.49744 | -78.36034 | 36540 ft | 510 kts | 56° |
| 2026-05-04 12:56 | 51.53714 | -78.26607 | 36542 ft | 509 kts | 56° |
| 2026-05-04 12:56 | 51.57674 | -78.17163 | 36548 ft | 510 kts | 56° |
| 2026-05-04 12:57 | 51.61623 | -78.07714 | 36538 ft | 509 kts | 56° |
| 2026-05-04 12:57 | 51.65565 | -77.98247 | 36545 ft | 509 kts | 56° |
| 2026-05-04 12:58 | 51.69503 | -77.88759 | 36543 ft | 509 kts | 56° |
| 2026-05-04 12:58 | 51.73433 | -77.79257 | 36543 ft | 509 kts | 56° |
| 2026-05-04 12:59 | 51.77357 | -77.69735 | 36588 ft | 510 kts | 56° |
| 2026-05-04 12:59 | 51.81274 | -77.60184 | 36619 ft | 510 kts | 56° |
| 2026-05-04 13:00 | 51.85184 | -77.50616 | 36618 ft | 510 kts | 56° |
| 2026-05-04 13:00 | 51.89090 | -77.41034 | 36617 ft | 510 kts | 57° |
| 2026-05-04 13:01 | 51.92987 | -77.31435 | 36618 ft | 510 kts | 57° |
| 2026-05-04 13:01 | 51.96879 | -77.21806 | 36618 ft | 510 kts | 57° |
| 2026-05-04 13:02 | 52.00761 | -77.12166 | 36618 ft | 510 kts | 57° |
| 2026-05-04 13:02 | 52.03982 | -77.04140 | 36618 ft | 511 kts | 57° |
| 2026-05-04 13:03 | 52.08481 | -76.92891 | 36618 ft | 511 kts | 57° |
| 2026-05-04 13:03 | 52.12349 | -76.83180 | 36618 ft | 511 kts | 57° |
| 2026-05-04 13:04 | 52.16206 | -76.73459 | 36617 ft | 511 kts | 57° |
| 2026-05-04 13:04 | 52.20059 | -76.63708 | 36617 ft | 512 kts | 58° |
| 2026-05-04 13:05 | 52.23279 | -76.55532 | 36618 ft | 512 kts | 58° |
| 2026-05-04 13:05 | 52.27119 | -76.45755 | 36619 ft | 512 kts | 58° |
| 2026-05-04 13:06 | 52.30942 | -76.35976 | 36617 ft | 511 kts | 58° |
| 2026-05-04 13:06 | 52.34762 | -76.26155 | 36627 ft | 513 kts | 58° |
| 2026-05-04 13:07 | 52.38607 | -76.16247 | 36627 ft | 516 kts | 58° |
| 2026-05-04 13:07 | 52.42422 | -76.06376 | 36627 ft | 516 kts | 58° |
| 2026-05-04 13:08 | 52.46247 | -75.96440 | 36627 ft | 515 kts | 58° |
| 2026-05-04 13:08 | 52.50071 | -75.86469 | 36627 ft | 516 kts | 58° |
| 2026-05-04 13:09 | 52.53885 | -75.76474 | 36636 ft | 516 kts | 58° |
| 2026-05-04 13:09 | 52.57660 | -75.66550 | 36636 ft | 509 kts | 58° |
| 2026-05-04 13:10 | 52.61390 | -75.56717 | 36637 ft | 507 kts | 58° |
| 2026-05-04 13:10 | 52.65123 | -75.46825 | 36637 ft | 510 kts | 59° |
| 2026-05-04 13:11 | 52.68866 | -75.36868 | 36645 ft | 511 kts | 59° |
| 2026-05-04 13:11 | 52.72600 | -75.26899 | 36647 ft | 511 kts | 59° |
| 2026-05-04 13:12 | 52.76326 | -75.16909 | 36649 ft | 511 kts | 59° |
| 2026-05-04 13:12 | 52.80048 | -75.06895 | 36656 ft | 511 kts | 59° |
| 2026-05-04 13:13 | 52.83762 | -74.96861 | 36655 ft | 512 kts | 59° |
| 2026-05-04 13:13 | 52.87468 | -74.86806 | 36664 ft | 511 kts | 59° |
| 2026-05-04 13:14 | 52.91157 | -74.76759 | 36658 ft | 511 kts | 59° |
| 2026-05-04 13:14 | 52.94842 | -74.66678 | 36661 ft | 511 kts | 59° |
| 2026-05-04 13:15 | 52.98512 | -74.56601 | 36684 ft | 510 kts | 60° |
| 2026-05-04 13:15 | 53.02172 | -74.46512 | 36688 ft | 511 kts | 60° |
| 2026-05-04 13:16 | 53.05831 | -74.36383 | 36687 ft | 511 kts | 60° |
| 2026-05-04 13:16 | 53.09485 | -74.26232 | 36687 ft | 512 kts | 60° |
| 2026-05-04 13:17 | 53.13130 | -74.16060 | 36693 ft | 512 kts | 60° |
| 2026-05-04 13:17 | 53.16767 | -74.05867 | 36692 ft | 511 kts | 60° |
| 2026-05-04 13:18 | 53.20374 | -73.95721 | 36691 ft | 512 kts | 60° |
| 2026-05-04 13:18 | 53.23993 | -73.85499 | 36687 ft | 511 kts | 60° |
| 2026-05-04 13:19 | 53.27596 | -73.75273 | 36664 ft | 510 kts | 60° |
| 2026-05-04 13:19 | 53.31186 | -73.65049 | 36682 ft | 511 kts | 60° |
| 2026-05-04 13:20 | 53.34779 | -73.54779 | 36684 ft | 512 kts | 61° |
| 2026-05-04 13:20 | 53.38364 | -73.44481 | 36688 ft | 512 kts | 61° |
| 2026-05-04 13:21 | 53.41937 | -73.34176 | 36689 ft | 512 kts | 61° |
| 2026-05-04 13:21 | 53.45501 | -73.23853 | 36677 ft | 511 kts | 61° |
| 2026-05-04 13:22 | 53.49057 | -73.13523 | 36683 ft | 511 kts | 61° |
| 2026-05-04 13:22 | 53.52598 | -73.03175 | 36683 ft | 511 kts | 61° |
| 2026-05-04 13:23 | 53.56132 | -72.92800 | 36681 ft | 511 kts | 61° |
| 2026-05-04 13:23 | 53.59654 | -72.82432 | 36688 ft | 510 kts | 62° |
| 2026-05-04 13:24 | 53.63171 | -72.72038 | 36683 ft | 511 kts | 62° |
| 2026-05-04 13:24 | 53.66674 | -72.61634 | 36687 ft | 510 kts | 62° |
| 2026-05-04 13:25 | 53.71913 | -72.45999 | 36684 ft | 510 kts | 62° |
| 2026-05-04 13:25 | 53.75389 | -72.35557 | 36679 ft | 509 kts | 62° |
| 2026-05-04 13:26 | 53.78856 | -72.25101 | 36687 ft | 510 kts | 62° |
| 2026-05-04 13:26 | 53.82310 | -72.14638 | 36682 ft | 509 kts | 62° |
| 2026-05-04 13:27 | 53.85754 | -72.04174 | 36675 ft | 509 kts | 62° |
| 2026-05-04 13:27 | 53.89169 | -71.93756 | 36684 ft | 509 kts | 63° |
| 2026-05-04 13:28 | 53.92593 | -71.83251 | 36667 ft | 509 kts | 63° |
| 2026-05-04 13:28 | 53.96005 | -71.72734 | 36664 ft | 509 kts | 63° |
| 2026-05-04 13:29 | 53.99409 | -71.62209 | 36664 ft | 509 kts | 63° |
| 2026-05-04 13:29 | 54.02801 | -71.51660 | 36678 ft | 508 kts | 63° |
| 2026-05-04 13:30 | 54.06186 | -71.41104 | 36674 ft | 508 kts | 63° |
| 2026-05-04 13:30 | 54.09564 | -71.30523 | 36677 ft | 509 kts | 63° |
| 2026-05-04 13:31 | 54.12934 | -71.19923 | 36660 ft | 509 kts | 63° |
| 2026-05-04 13:31 | 54.16289 | -71.09311 | 36663 ft | 508 kts | 63° |
| 2026-05-04 13:32 | 54.19633 | -70.98685 | 36665 ft | 507 kts | 64° |
| 2026-05-04 13:32 | 54.22964 | -70.88064 | 36678 ft | 508 kts | 64° |
| 2026-05-04 13:33 | 54.26294 | -70.77398 | 36681 ft | 507 kts | 64° |
| 2026-05-04 13:33 | 54.29605 | -70.66740 | 36661 ft | 507 kts | 64° |
| 2026-05-04 13:34 | 54.32905 | -70.56069 | 36665 ft | 507 kts | 64° |
| 2026-05-04 13:34 | 54.36193 | -70.45399 | 36665 ft | 505 kts | 64° |
| 2026-05-04 13:35 | 54.41117 | -70.29368 | 36664 ft | 507 kts | 64° |
| 2026-05-04 13:36 | 54.44392 | -70.18655 | 36661 ft | 506 kts | 64° |
| 2026-05-04 13:36 | 54.47654 | -70.07941 | 36662 ft | 506 kts | 64° |
| 2026-05-04 13:37 | 54.50879 | -69.97180 | 36658 ft | 506 kts | 65° |
| 2026-05-04 13:37 | 54.54180 | -69.86468 | 36681 ft | 507 kts | 63° |
| 2026-05-04 13:38 | 54.57595 | -69.75858 | 36674 ft | 506 kts | 63° |
| 2026-05-04 13:38 | 54.60977 | -69.65224 | 36664 ft | 506 kts | 64° |
| 2026-05-04 13:39 | 54.64314 | -69.54603 | 36662 ft | 507 kts | 64° |
| 2026-05-04 13:39 | 54.67664 | -69.43879 | 36664 ft | 507 kts | 64° |
| 2026-05-04 13:40 | 54.71007 | -69.33142 | 36683 ft | 507 kts | 64° |
| 2026-05-04 13:40 | 54.74338 | -69.22383 | 36673 ft | 507 kts | 64° |
| 2026-05-04 13:41 | 54.77650 | -69.11612 | 36678 ft | 507 kts | 64° |
| 2026-05-04 13:41 | 54.80952 | -69.00831 | 36666 ft | 506 kts | 64° |
| 2026-05-04 13:42 | 54.85889 | -68.84620 | 36712 ft | 508 kts | 64° |
| 2026-05-04 13:42 | 54.89180 | -68.73764 | 36710 ft | 508 kts | 65° |
| 2026-05-04 13:43 | 54.92453 | -68.62893 | 36709 ft | 507 kts | 65° |
| 2026-05-04 13:43 | 54.95714 | -68.52017 | 36703 ft | 507 kts | 65° |
| 2026-05-04 13:44 | 54.98960 | -68.41138 | 36705 ft | 506 kts | 65° |
| 2026-05-04 13:44 | 55.02203 | -68.30236 | 36699 ft | 506 kts | 65° |
| 2026-05-04 13:45 | 55.05436 | -68.19307 | 36702 ft | 507 kts | 65° |
| 2026-05-04 13:45 | 55.08655 | -68.08377 | 36706 ft | 507 kts | 65° |
| 2026-05-04 13:46 | 55.11848 | -67.97494 | 36695 ft | 507 kts | 66° |
| 2026-05-04 13:46 | 55.15048 | -67.86532 | 36692 ft | 506 kts | 66° |
| 2026-05-04 13:47 | 55.18235 | -67.75551 | 36696 ft | 506 kts | 66° |
| 2026-05-04 13:47 | 55.21413 | -67.64567 | 36694 ft | 506 kts | 66° |
| 2026-05-04 13:48 | 55.24577 | -67.53562 | 36687 ft | 505 kts | 66° |
| 2026-05-04 13:48 | 55.27729 | -67.42546 | 36679 ft | 506 kts | 66° |
| 2026-05-04 13:49 | 55.30867 | -67.31547 | 36677 ft | 506 kts | 66° |
| 2026-05-04 13:49 | 55.33999 | -67.20502 | 36686 ft | 505 kts | 66° |
| 2026-05-04 13:50 | 55.37122 | -67.09441 | 36686 ft | 505 kts | 66° |
| 2026-05-04 13:50 | 55.40230 | -66.98387 | 36684 ft | 504 kts | 66° |
| 2026-05-04 13:51 | 55.43325 | -66.87318 | 36687 ft | 504 kts | 67° |